Flight Track Log - Related Links

Times and Time Zones

All times are in EDT time to prevent confusion due to time zone crossing. See the TMC875 flight status page for this flight to view local times or setup timezone preferences in your user account.

Time Position Orientation Groundspeed Altitude Reporting Facility
EDT Latitude Longitude Course Direction KTS MPH feet Rate Location/Type
Thu 09:03:40 AM 41.0500 -73.7000 56° Northeast 185 213 1,700  Level New York TRACON
Thu 09:05:35 AM 41.1019 -73.8228 299° West 220 253 7,800 3,120 Climbing Boston Center
Thu 09:06:35 AM 41.1481 -73.7992 21° North 182 209 10,800 1,600 Climbing Boston Center
Thu 09:07:35 AM 41.1992 -73.6925 57° Northeast 239 275 11,000 700 Climbing Boston Center
Thu 09:08:35 AM 41.2358 -73.5800 67° East 316 364 12,200 1,750 Climbing Boston Center
Thu 09:09:00 AM 41.3647 -73.1373 56° Northeast  Level FlightAware Approximate
Thu 09:09:35 AM 41.2722 -73.4758 65° Northeast 326 375 14,500  Level Boston Center
Thu 09:10:35 AM 41.3108 -73.3547 67° East 334 384 15,000 250 Climbing Boston Center
Thu 09:11:35 AM 41.3536 -73.2308 65° Northeast 356 410 15,000  Level Boston Center
Thu 09:12:47 AM 41.4000 -73.1125 62° Northeast 356 410 15,000  Level Boston Center
Thu 09:13:47 AM 41.4592 -72.9747 60° Northeast 351 404 15,000  Level Boston Center
Thu 09:14:47 AM 41.5117 -72.8836 52° Northeast 351 404 15,000  Level Boston Center
Thu 09:15:47 AM 41.5831 -72.7703 50° Northeast 351 404 15,000  Level Boston Center
Thu 09:16:47 AM 41.6414 -72.6872 47° Northeast 351 404 15,000  Level Boston Center
Thu 09:17:47 AM 41.7189 -72.5792 46° Northeast 351 404 15,000 -300 Level Boston Center
Thu 09:18:47 AM 41.7878 -72.4819 46° Northeast 351 404 14,400 -650 Descending Boston Center
Thu 09:19:47 AM 41.8606 -72.3789 47° Northeast 363 418 13,700 -850 Descending Boston Center
Thu 09:20:47 AM 41.9333 -72.2756 47° Northeast 374 430 12,700 -1,017 Descending Boston Center
Thu 09:21:45 AM 42.0042 -72.1719 47° Northeast 392 451 11,700 -1,210 Descending Boston Center
Thu 09:22:46 AM 42.0808 -72.0625 47° Northeast 379 436 10,300 -1,438 Descending Boston Center
Thu 09:23:46 AM 42.1453 -71.9892 40° Northeast 305 351 8,800 -1,835 Descending Boston Center
Thu 09:24:47 AM 42.2222 -71.9692 11° North 272 313 6,600 -1,399 Descending Boston Center
Thu 09:26:29 AM 42.3167 -71.8667 39° Northeast 261 300 5,000 -593 Descending KA90
Thu 09:27:29 AM 42.3500 -71.7833 62° Northeast 273 314 5,000  Level KA90
Thu 09:28:31 AM 42.4000 -71.7000 51° Northeast 277 319 5,000 -151 Level KA90
Thu 09:29:28 AM 42.4500 -71.6167 51° Northeast 273 314 4,700 -600 Descending KA90
Thu 09:30:31 AM 42.5000 -71.5500 44° Northeast 252 290 3,800 -843 Descending KA90
Thu 09:31:29 AM 42.5333 -71.4667 61° Northeast 239 275 3,000 -410 Descending KA90
Thu 09:32:28 AM 42.5500 -71.3833 75° East 227 261 3,000 -244 Level KA90
Thu 09:33:32 AM 42.5667 -71.3167 71° East 205 236 2,500 -446 Descending KA90
Thu 09:34:29 AM 42.5500 -71.2500 109° East 180 207 2,100 -359 Descending KA90
Thu 09:35:29 AM 42.5167 -71.2000 132° Southeast 163 188 1,800 -100 Descending KA90
Thu 09:36:29 AM 42.4833 -71.1833 160° South 161 185 1,900 -450 Climbing KA90
Thu 09:37:29 AM 42.4667 -71.2167 236° Southwest 137 158 900 -1,000 Descending KA90
Thu 09:39:00 AM 42.4667 -71.2833 196° South  Level FlightAware Approximate

Login

Don't have an account? Register now (free) for customized features, flight alerts, and more!